sensor_id;sensor_type;location;lat;lon;timestamp;P1;durP1;ratioP1;P2;durP2;ratioP2
22223;SDS011;11281;52.194;21.006;2023-08-01T00:01:40;4.30;;;2.63;;
22223;SDS011;11281;52.194;21.006;2023-08-01T00:06:02;4.65;;;2.70;;
22223;SDS011;11281;52.194;21.006;2023-08-01T00:10:24;3.75;;;2.63;;
22223;SDS011;11281;52.194;21.006;2023-08-01T00:14:46;4.78;;;2.30;;
22223;SDS011;11281;52.194;21.006;2023-08-01T00:19:07;6.57;;;3.20;;
22223;SDS011;11281;52.194;21.006;2023-08-01T00:23:29;3.80;;;2.53;;
22223;SDS011;11281;52.194;21.006;2023-08-01T00:27:51;3.35;;;2.40;;
22223;SDS011;11281;52.194;21.006;2023-08-01T00:32:13;3.03;;;2.45;;
22223;SDS011;11281;52.194;21.006;2023-08-01T00:36:34;2.42;;;1.88;;
22223;SDS011;11281;52.194;21.006;2023-08-01T00:40:56;3.33;;;2.60;;
22223;SDS011;11281;52.194;21.006;2023-08-01T00:45:18;3.90;;;2.50;;
22223;SDS011;11281;52.194;21.006;2023-08-01T00:49:40;4.40;;;2.22;;
22223;SDS011;11281;52.194;21.006;2023-08-01T00:54:02;5.32;;;2.47;;
22223;SDS011;11281;52.194;21.006;2023-08-01T00:58:24;3.15;;;2.22;;
22223;SDS011;11281;52.194;21.006;2023-08-01T01:02:46;5.88;;;2.70;;
22223;SDS011;11281;52.194;21.006;2023-08-01T01:07:07;3.28;;;2.55;;
22223;SDS011;11281;52.194;21.006;2023-08-01T01:11:30;5.43;;;2.65;;
22223;SDS011;11281;52.194;21.006;2023-08-01T01:15:51;4.22;;;2.15;;
22223;SDS011;11281;52.194;21.006;2023-08-01T01:20:13;5.18;;;2.35;;
22223;SDS011;11281;52.194;21.006;2023-08-01T01:24:35;7.80;;;2.90;;
22223;SDS011;11281;52.194;21.006;2023-08-01T01:28:58;3.13;;;2.53;;
22223;SDS011;11281;52.194;21.006;2023-08-01T01:33:21;3.65;;;2.80;;
22223;SDS011;11281;52.194;21.006;2023-08-01T01:37:43;3.85;;;2.42;;
22223;SDS011;11281;52.194;21.006;2023-08-01T01:42:05;4.75;;;2.47;;
22223;SDS011;11281;52.194;21.006;2023-08-01T01:46:27;5.97;;;3.10;;
22223;SDS011;11281;52.194;21.006;2023-08-01T01:50:49;6.38;;;3.00;;
22223;SDS011;11281;52.194;21.006;2023-08-01T01:55:10;4.10;;;2.65;;
22223;SDS011;11281;52.194;21.006;2023-08-01T01:59:32;3.45;;;2.53;;
22223;SDS011;11281;52.194;21.006;2023-08-01T02:03:54;2.75;;;2.42;;
22223;SDS011;11281;52.194;21.006;2023-08-01T02:08:15;2.72;;;2.33;;
22223;SDS011;11281;52.194;21.006;2023-08-01T02:12:37;8.32;;;2.50;;
22223;SDS011;11281;52.194;21.006;2023-08-01T02:16:59;5.28;;;3.00;;
22223;SDS011;11281;52.194;21.006;2023-08-01T02:21:20;3.03;;;2.72;;
22223;SDS011;11281;52.194;21.006;2023-08-01T02:25:42;3.15;;;2.72;;
22223;SDS011;11281;52.194;21.006;2023-08-01T02:30:04;4.90;;;2.47;;
22223;SDS011;11281;52.194;21.006;2023-08-01T02:34:27;3.25;;;2.53;;
22223;SDS011;11281;52.194;21.006;2023-08-01T02:38:48;6.45;;;2.70;;
22223;SDS011;11281;52.194;21.006;2023-08-01T02:43:10;3.25;;;2.55;;
22223;SDS011;11281;52.194;21.006;2023-08-01T02:47:32;3.63;;;2.75;;
22223;SDS011;11281;52.194;21.006;2023-08-01T02:51:54;4.40;;;2.70;;
22223;SDS011;11281;52.194;21.006;2023-08-01T02:56:15;6.10;;;3.20;;
22223;SDS011;11281;52.194;21.006;2023-08-01T03:00:38;4.75;;;3.10;;
22223;SDS011;11281;52.194;21.006;2023-08-01T03:05:01;4.32;;;2.63;;
22223;SDS011;11281;52.194;21.006;2023-08-01T03:09:25;4.72;;;2.50;;
22223;SDS011;11281;52.194;21.006;2023-08-01T03:13:47;4.43;;;2.47;;
22223;SDS011;11281;52.194;21.006;2023-08-01T03:18:09;5.20;;;3.03;;
22223;SDS011;11281;52.194;21.006;2023-08-01T03:22:30;3.35;;;2.83;;
22223;SDS011;11281;52.194;21.006;2023-08-01T03:26:52;7.57;;;3.17;;
22223;SDS011;11281;52.194;21.006;2023-08-01T03:31:14;2.95;;;2.38;;
22223;SDS011;11281;52.194;21.006;2023-08-01T03:35:36;4.60;;;2.60;;
22223;SDS011;11281;52.194;21.006;2023-08-01T03:39:57;4.65;;;2.63;;
22223;SDS011;11281;52.194;21.006;2023-08-01T03:44:19;3.10;;;2.55;;
22223;SDS011;11281;52.194;21.006;2023-08-01T03:48:41;3.45;;;2.70;;
22223;SDS011;11281;52.194;21.006;2023-08-01T03:53:04;7.65;;;2.80;;
22223;SDS011;11281;52.194;21.006;2023-08-01T03:57:25;3.75;;;2.80;;
22223;SDS011;11281;52.194;21.006;2023-08-01T04:01:47;4.00;;;2.95;;
22223;SDS011;11281;52.194;21.006;2023-08-01T04:06:09;4.32;;;3.03;;
22223;SDS011;11281;52.194;21.006;2023-08-01T04:10:31;5.38;;;2.90;;
22223;SDS011;11281;52.194;21.006;2023-08-01T04:14:53;6.03;;;3.17;;
22223;SDS011;11281;52.194;21.006;2023-08-01T04:19:15;5.18;;;2.85;;
22223;SDS011;11281;52.194;21.006;2023-08-01T04:23:36;3.65;;;2.45;;
22223;SDS011;11281;52.194;21.006;2023-08-01T04:27:58;4.15;;;2.33;;
22223;SDS011;11281;52.194;21.006;2023-08-01T04:32:20;3.50;;;2.97;;
22223;SDS011;11281;52.194;21.006;2023-08-01T04:36:42;3.80;;;2.50;;
22223;SDS011;11281;52.194;21.006;2023-08-01T04:41:03;3.90;;;2.80;;
22223;SDS011;11281;52.194;21.006;2023-08-01T04:45:25;5.18;;;2.85;;
22223;SDS011;11281;52.194;21.006;2023-08-01T04:49:47;3.45;;;2.30;;
22223;SDS011;11281;52.194;21.006;2023-08-01T04:54:08;4.95;;;2.47;;
22223;SDS011;11281;52.194;21.006;2023-08-01T04:58:30;3.67;;;2.97;;
22223;SDS011;11281;52.194;21.006;2023-08-01T05:02:52;7.15;;;2.60;;
22223;SDS011;11281;52.194;21.006;2023-08-01T05:07:13;7.38;;;3.00;;
22223;SDS011;11281;52.194;21.006;2023-08-01T05:11:35;3.05;;;2.30;;
22223;SDS011;11281;52.194;21.006;2023-08-01T05:15:57;3.80;;;2.22;;
22223;SDS011;11281;52.194;21.006;2023-08-01T05:20:19;3.58;;;2.10;;
22223;SDS011;11281;52.194;21.006;2023-08-01T05:24:40;4.65;;;2.45;;
22223;SDS011;11281;52.194;21.006;2023-08-01T05:29:02;7.97;;;2.10;;
22223;SDS011;11281;52.194;21.006;2023-08-01T05:33:24;4.30;;;2.13;;
22223;SDS011;11281;52.194;21.006;2023-08-01T05:37:46;4.72;;;2.63;;
22223;SDS011;11281;52.194;21.006;2023-08-01T05:42:08;2.70;;;1.90;;
22223;SDS011;11281;52.194;21.006;2023-08-01T05:46:30;3.33;;;2.00;;
22223;SDS011;11281;52.194;21.006;2023-08-01T05:50:51;5.90;;;2.15;;
22223;SDS011;11281;52.194;21.006;2023-08-01T05:55:16;2.28;;;2.00;;
22223;SDS011;11281;52.194;21.006;2023-08-01T05:59:37;4.40;;;1.92;;
22223;SDS011;11281;52.194;21.006;2023-08-01T06:03:59;2.33;;;2.00;;
22223;SDS011;11281;52.194;21.006;2023-08-01T06:08:21;3.17;;;2.00;;
22223;SDS011;11281;52.194;21.006;2023-08-01T06:12:43;2.97;;;2.08;;
22223;SDS011;11281;52.194;21.006;2023-08-01T06:17:05;2.97;;;2.03;;
22223;SDS011;11281;52.194;21.006;2023-08-01T06:21:26;3.80;;;2.67;;
22223;SDS011;11281;52.194;21.006;2023-08-01T06:25:48;2.35;;;1.70;;
22223;SDS011;11281;52.194;21.006;2023-08-01T06:30:10;7.25;;;2.45;;
22223;SDS011;11281;52.194;21.006;2023-08-01T06:34:32;5.50;;;2.60;;
22223;SDS011;11281;52.194;21.006;2023-08-01T06:38:54;3.63;;;2.00;;
22223;SDS011;11281;52.194;21.006;2023-08-01T06:43:15;1.75;;;1.60;;
22223;SDS011;11281;52.194;21.006;2023-08-01T06:47:37;4.40;;;2.17;;
22223;SDS011;11281;52.194;21.006;2023-08-01T06:51:59;3.78;;;2.00;;
22223;SDS011;11281;52.194;21.006;2023-08-01T06:56:21;5.75;;;2.22;;
22223;SDS011;11281;52.194;21.006;2023-08-01T07:00:43;6.57;;;2.13;;
22223;SDS011;11281;52.194;21.006;2023-08-01T07:05:05;4.13;;;1.90;;
22223;SDS011;11281;52.194;21.006;2023-08-01T07:09:27;4.60;;;2.03;;
22223;SDS011;11281;52.194;21.006;2023-08-01T07:13:49;3.47;;;2.17;;
22223;SDS011;11281;52.194;21.006;2023-08-01T07:18:11;6.47;;;2.47;;
22223;SDS011;11281;52.194;21.006;2023-08-01T07:22:32;2.63;;;1.90;;
22223;SDS011;11281;52.194;21.006;2023-08-01T07:26:54;5.13;;;2.13;;
22223;SDS011;11281;52.194;21.006;2023-08-01T07:31:16;4.40;;;1.92;;
22223;SDS011;11281;52.194;21.006;2023-08-01T07:35:37;2.63;;;1.48;;
22223;SDS011;11281;52.194;21.006;2023-08-01T07:39:59;3.25;;;1.77;;
22223;SDS011;11281;52.194;21.006;2023-08-01T07:44:21;4.80;;;1.83;;
22223;SDS011;11281;52.194;21.006;2023-08-01T07:48:43;2.25;;;1.60;;
22223;SDS011;11281;52.194;21.006;2023-08-01T07:53:04;5.65;;;2.00;;
22223;SDS011;11281;52.194;21.006;2023-08-01T07:57:26;3.63;;;1.83;;
22223;SDS011;11281;52.194;21.006;2023-08-01T08:01:48;3.38;;;1.75;;
22223;SDS011;11281;52.194;21.006;2023-08-01T08:06:09;2.72;;;1.60;;
22223;SDS011;11281;52.194;21.006;2023-08-01T08:10:31;5.93;;;1.95;;
22223;SDS011;11281;52.194;21.006;2023-08-01T08:14:53;3.03;;;1.98;;
22223;SDS011;11281;52.194;21.006;2023-08-01T08:19:15;2.33;;;1.83;;
22223;SDS011;11281;52.194;21.006;2023-08-01T08:23:37;2.03;;;1.67;;
22223;SDS011;11281;52.194;21.006;2023-08-01T08:27:59;4.25;;;2.17;;
22223;SDS011;11281;52.194;21.006;2023-08-01T08:32:21;3.72;;;1.98;;
22223;SDS011;11281;52.194;21.006;2023-08-01T08:36:42;3.67;;;2.00;;
22223;SDS011;11281;52.194;21.006;2023-08-01T08:41:06;2.70;;;1.85;;
22223;SDS011;11281;52.194;21.006;2023-08-01T08:45:34;2.72;;;1.98;;
22223;SDS011;11281;52.194;21.006;2023-08-01T08:49:56;4.05;;;2.08;;
22223;SDS011;11281;52.194;21.006;2023-08-01T08:54:19;3.15;;;1.83;;
22223;SDS011;11281;52.194;21.006;2023-08-01T08:58:41;3.35;;;1.83;;
22223;SDS011;11281;52.194;21.006;2023-08-01T09:03:04;5.38;;;1.85;;
22223;SDS011;11281;52.194;21.006;2023-08-01T09:07:27;6.15;;;1.90;;
22223;SDS011;11281;52.194;21.006;2023-08-01T09:16:17;3.65;;;1.90;;
22223;SDS011;11281;52.194;21.006;2023-08-01T09:20:39;5.20;;;1.80;;
22223;SDS011;11281;52.194;21.006;2023-08-01T09:25:06;2.57;;;2.37;;
22223;SDS011;11281;52.194;21.006;2023-08-01T09:29:28;4.15;;;1.90;;
22223;SDS011;11281;52.194;21.006;2023-08-01T09:33:53;1.65;;;1.55;;
22223;SDS011;11281;52.194;21.006;2023-08-01T09:38:15;3.03;;;1.73;;
22223;SDS011;11281;52.194;21.006;2023-08-01T09:42:38;6.70;;;2.72;;
22223;SDS011;11281;52.194;21.006;2023-08-01T09:47:04;3.60;;;1.60;;
22223;SDS011;11281;52.194;21.006;2023-08-01T09:51:29;3.90;;;1.63;;
22223;SDS011;11281;52.194;21.006;2023-08-01T09:55:51;3.72;;;2.10;;
22223;SDS011;11281;52.194;21.006;2023-08-01T10:00:14;5.15;;;2.13;;
22223;SDS011;11281;52.194;21.006;2023-08-01T10:04:36;4.20;;;2.15;;
22223;SDS011;11281;52.194;21.006;2023-08-01T10:09:01;4.25;;;2.17;;
22223;SDS011;11281;52.194;21.006;2023-08-01T10:13:23;5.10;;;2.10;;
22223;SDS011;11281;52.194;21.006;2023-08-01T10:17:45;4.53;;;2.00;;
22223;SDS011;11281;52.194;21.006;2023-08-01T10:22:07;5.78;;;1.90;;
22223;SDS011;11281;52.194;21.006;2023-08-01T10:26:30;3.42;;;1.73;;
22223;SDS011;11281;52.194;21.006;2023-08-01T10:30:52;3.42;;;2.10;;
22223;SDS011;11281;52.194;21.006;2023-08-01T10:35:14;7.60;;;2.85;;
22223;SDS011;11281;52.194;21.006;2023-08-01T10:39:36;4.18;;;2.25;;
22223;SDS011;11281;52.194;21.006;2023-08-01T10:44:04;3.25;;;2.00;;
22223;SDS011;11281;52.194;21.006;2023-08-01T10:48:33;4.45;;;2.60;;
22223;SDS011;11281;52.194;21.006;2023-08-01T10:53:01;5.55;;;2.50;;
22223;SDS011;11281;52.194;21.006;2023-08-01T10:57:34;3.83;;;2.58;;
22223;SDS011;11281;52.194;21.006;2023-08-01T11:01:58;3.85;;;2.42;;
22223;SDS011;11281;52.194;21.006;2023-08-01T11:06:21;5.90;;;2.78;;
22223;SDS011;11281;52.194;21.006;2023-08-01T11:10:48;3.03;;;2.08;;
22223;SDS011;11281;52.194;21.006;2023-08-01T11:15:12;3.47;;;2.35;;
22223;SDS011;11281;52.194;21.006;2023-08-01T11:19:35;3.13;;;2.45;;
22223;SDS011;11281;52.194;21.006;2023-08-01T11:23:57;4.45;;;2.67;;
22223;SDS011;11281;52.194;21.006;2023-08-01T11:28:18;4.70;;;2.47;;
22223;SDS011;11281;52.194;21.006;2023-08-01T11:32:40;4.07;;;2.60;;
22223;SDS011;11281;52.194;21.006;2023-08-01T11:37:02;9.85;;;2.95;;
22223;SDS011;11281;52.194;21.006;2023-08-01T11:41:24;4.13;;;2.70;;
22223;SDS011;11281;52.194;21.006;2023-08-01T11:45:54;2.90;;;2.60;;
22223;SDS011;11281;52.194;21.006;2023-08-01T11:50:24;3.50;;;2.20;;
22223;SDS011;11281;52.194;21.006;2023-08-01T11:54:46;5.45;;;2.47;;
22223;SDS011;11281;52.194;21.006;2023-08-01T11:59:12;3.25;;;2.08;;
22223;SDS011;11281;52.194;21.006;2023-08-01T12:03:46;3.53;;;2.20;;
22223;SDS011;11281;52.194;21.006;2023-08-01T12:08:13;3.08;;;2.50;;
22223;SDS011;11281;52.194;21.006;2023-08-01T12:12:43;4.78;;;2.85;;
22223;SDS011;11281;52.194;21.006;2023-08-01T12:17:07;4.63;;;2.30;;
22223;SDS011;11281;52.194;21.006;2023-08-01T12:21:29;3.38;;;1.85;;
22223;SDS011;11281;52.194;21.006;2023-08-01T12:25:52;3.95;;;2.40;;
22223;SDS011;11281;52.194;21.006;2023-08-01T12:30:14;3.60;;;2.35;;
22223;SDS011;11281;52.194;21.006;2023-08-01T12:34:36;3.90;;;2.30;;
22223;SDS011;11281;52.194;21.006;2023-08-01T12:38:57;3.13;;;2.22;;
22223;SDS011;11281;52.194;21.006;2023-08-01T12:43:19;5.10;;;2.28;;
22223;SDS011;11281;52.194;21.006;2023-08-01T12:47:41;3.13;;;2.03;;
22223;SDS011;11281;52.194;21.006;2023-08-01T12:52:03;3.50;;;2.28;;
22223;SDS011;11281;52.194;21.006;2023-08-01T12:56:24;3.97;;;2.42;;
22223;SDS011;11281;52.194;21.006;2023-08-01T13:00:46;3.45;;;2.25;;
22223;SDS011;11281;52.194;21.006;2023-08-01T13:05:08;5.10;;;2.10;;
22223;SDS011;11281;52.194;21.006;2023-08-01T13:09:30;4.95;;;2.58;;
22223;SDS011;11281;52.194;21.006;2023-08-01T13:13:52;4.78;;;2.20;;
22223;SDS011;11281;52.194;21.006;2023-08-01T13:18:13;3.92;;;2.05;;
22223;SDS011;11281;52.194;21.006;2023-08-01T13:22:35;4.18;;;2.10;;
22223;SDS011;11281;52.194;21.006;2023-08-01T13:26:58;8.35;;;2.58;;
22223;SDS011;11281;52.194;21.006;2023-08-01T13:31:20;8.52;;;2.20;;
22223;SDS011;11281;52.194;21.006;2023-08-01T13:35:41;5.68;;;2.53;;
22223;SDS011;11281;52.194;21.006;2023-08-01T13:40:03;4.25;;;1.98;;
22223;SDS011;11281;52.194;21.006;2023-08-01T13:44:26;4.22;;;2.30;;
22223;SDS011;11281;52.194;21.006;2023-08-01T13:48:48;3.90;;;2.65;;
22223;SDS011;11281;52.194;21.006;2023-08-01T13:53:09;5.10;;;2.35;;
22223;SDS011;11281;52.194;21.006;2023-08-01T13:57:34;5.47;;;2.58;;
22223;SDS011;11281;52.194;21.006;2023-08-01T14:01:56;3.15;;;2.15;;
22223;SDS011;11281;52.194;21.006;2023-08-01T14:06:18;3.22;;;2.20;;
22223;SDS011;11281;52.194;21.006;2023-08-01T14:10:40;3.63;;;2.20;;
22223;SDS011;11281;52.194;21.006;2023-08-01T14:15:03;3.03;;;2.22;;
22223;SDS011;11281;52.194;21.006;2023-08-01T14:19:26;4.38;;;2.15;;
22223;SDS011;11281;52.194;21.006;2023-08-01T14:23:50;4.63;;;2.55;;
22223;SDS011;11281;52.194;21.006;2023-08-01T14:28:12;3.85;;;2.45;;
22223;SDS011;11281;52.194;21.006;2023-08-01T14:32:36;5.45;;;2.83;;
22223;SDS011;11281;52.194;21.006;2023-08-01T14:36:58;5.28;;;2.30;;
22223;SDS011;11281;52.194;21.006;2023-08-01T14:41:20;3.20;;;2.05;;
22223;SDS011;11281;52.194;21.006;2023-08-01T14:45:42;3.67;;;2.28;;
22223;SDS011;11281;52.194;21.006;2023-08-01T14:50:03;3.70;;;2.90;;
22223;SDS011;11281;52.194;21.006;2023-08-01T14:54:25;3.42;;;2.50;;
22223;SDS011;11281;52.194;21.006;2023-08-01T14:58:48;3.33;;;2.33;;
22223;SDS011;11281;52.194;21.006;2023-08-01T15:03:10;3.40;;;2.47;;
22223;SDS011;11281;52.194;21.006;2023-08-01T15:07:32;6.38;;;2.97;;
22223;SDS011;11281;52.194;21.006;2023-08-01T15:11:53;3.30;;;2.22;;
22223;SDS011;11281;52.194;21.006;2023-08-01T15:16:15;6.60;;;3.05;;
22223;SDS011;11281;52.194;21.006;2023-08-01T15:20:37;3.05;;;2.47;;
22223;SDS011;11281;52.194;21.006;2023-08-01T15:25:01;6.28;;;2.30;;
22223;SDS011;11281;52.194;21.006;2023-08-01T15:29:23;2.92;;;2.13;;
22223;SDS011;11281;52.194;21.006;2023-08-01T15:33:45;6.68;;;2.20;;
22223;SDS011;11281;52.194;21.006;2023-08-01T15:38:07;4.97;;;2.10;;
22223;SDS011;11281;52.194;21.006;2023-08-01T15:42:30;7.85;;;3.10;;
22223;SDS011;11281;52.194;21.006;2023-08-01T15:46:52;6.38;;;2.90;;
22223;SDS011;11281;52.194;21.006;2023-08-01T15:51:13;3.92;;;2.65;;
22223;SDS011;11281;52.194;21.006;2023-08-01T15:55:35;4.15;;;2.85;;
22223;SDS011;11281;52.194;21.006;2023-08-01T15:59:57;4.97;;;2.97;;
22223;SDS011;11281;52.194;21.006;2023-08-01T16:04:19;3.45;;;2.60;;
22223;SDS011;11281;52.194;21.006;2023-08-01T16:08:40;4.70;;;2.50;;
22223;SDS011;11281;52.194;21.006;2023-08-01T16:13:02;4.85;;;2.38;;
22223;SDS011;11281;52.194;21.006;2023-08-01T16:17:24;5.15;;;3.25;;
22223;SDS011;11281;52.194;21.006;2023-08-01T16:21:45;5.53;;;3.40;;
22223;SDS011;11281;52.194;21.006;2023-08-01T16:26:07;3.60;;;2.45;;
22223;SDS011;11281;52.194;21.006;2023-08-01T16:30:29;4.15;;;3.17;;
22223;SDS011;11281;52.194;21.006;2023-08-01T16:34:51;4.97;;;2.80;;
22223;SDS011;11281;52.194;21.006;2023-08-01T16:39:13;4.30;;;2.42;;
22223;SDS011;11281;52.194;21.006;2023-08-01T16:43:35;4.35;;;2.70;;
22223;SDS011;11281;52.194;21.006;2023-08-01T16:47:56;4.20;;;2.30;;
22223;SDS011;11281;52.194;21.006;2023-08-01T16:52:18;5.65;;;3.03;;
22223;SDS011;11281;52.194;21.006;2023-08-01T16:56:40;5.85;;;3.22;;
22223;SDS011;11281;52.194;21.006;2023-08-01T17:01:02;4.75;;;2.70;;
22223;SDS011;11281;52.194;21.006;2023-08-01T17:05:24;3.85;;;2.30;;
22223;SDS011;11281;52.194;21.006;2023-08-01T17:09:45;6.57;;;3.03;;
22223;SDS011;11281;52.194;21.006;2023-08-01T17:14:07;3.88;;;2.33;;
22223;SDS011;11281;52.194;21.006;2023-08-01T17:18:29;3.80;;;2.40;;
22223;SDS011;11281;52.194;21.006;2023-08-01T17:22:51;5.40;;;2.80;;
22223;SDS011;11281;52.194;21.006;2023-08-01T17:27:12;5.95;;;2.53;;
22223;SDS011;11281;52.194;21.006;2023-08-01T17:31:34;4.88;;;2.70;;
22223;SDS011;11281;52.194;21.006;2023-08-01T17:35:56;2.65;;;2.20;;
22223;SDS011;11281;52.194;21.006;2023-08-01T17:40:18;5.18;;;2.15;;
22223;SDS011;11281;52.194;21.006;2023-08-01T17:44:39;4.22;;;2.65;;
22223;SDS011;11281;52.194;21.006;2023-08-01T17:49:01;3.67;;;2.53;;
22223;SDS011;11281;52.194;21.006;2023-08-01T17:53:23;4.72;;;2.78;;
22223;SDS011;11281;52.194;21.006;2023-08-01T17:57:45;3.58;;;2.45;;
22223;SDS011;11281;52.194;21.006;2023-08-01T18:02:06;2.55;;;2.30;;
22223;SDS011;11281;52.194;21.006;2023-08-01T18:06:28;2.50;;;2.10;;
22223;SDS011;11281;52.194;21.006;2023-08-01T18:10:50;3.28;;;2.58;;
22223;SDS011;11281;52.194;21.006;2023-08-01T18:15:12;4.97;;;2.20;;
22223;SDS011;11281;52.194;21.006;2023-08-01T18:19:33;4.13;;;2.30;;
22223;SDS011;11281;52.194;21.006;2023-08-01T18:23:55;3.13;;;2.10;;
22223;SDS011;11281;52.194;21.006;2023-08-01T18:28:17;3.33;;;2.17;;
22223;SDS011;11281;52.194;21.006;2023-08-01T18:32:39;3.17;;;2.22;;
22223;SDS011;11281;52.194;21.006;2023-08-01T18:37:00;3.65;;;2.58;;
22223;SDS011;11281;52.194;21.006;2023-08-01T18:41:22;3.97;;;2.53;;
22223;SDS011;11281;52.194;21.006;2023-08-01T18:45:52;3.22;;;2.10;;
22223;SDS011;11281;52.194;21.006;2023-08-01T18:50:14;3.30;;;2.20;;
22223;SDS011;11281;52.194;21.006;2023-08-01T18:54:36;3.53;;;2.38;;
22223;SDS011;11281;52.194;21.006;2023-08-01T18:58:58;5.30;;;2.50;;
22223;SDS011;11281;52.194;21.006;2023-08-01T19:03:20;5.22;;;2.30;;
22223;SDS011;11281;52.194;21.006;2023-08-01T19:07:41;3.70;;;2.47;;
22223;SDS011;11281;52.194;21.006;2023-08-01T19:12:04;5.85;;;2.97;;
22223;SDS011;11281;52.194;21.006;2023-08-01T19:16:28;4.78;;;2.17;;
22223;SDS011;11281;52.194;21.006;2023-08-01T19:20:51;4.00;;;1.98;;
22223;SDS011;11281;52.194;21.006;2023-08-01T19:25:13;4.57;;;2.10;;
22223;SDS011;11281;52.194;21.006;2023-08-01T19:29:34;2.58;;;1.92;;
22223;SDS011;11281;52.194;21.006;2023-08-01T19:33:56;2.40;;;1.60;;
22223;SDS011;11281;52.194;21.006;2023-08-01T19:38:20;2.70;;;2.05;;
22223;SDS011;11281;52.194;21.006;2023-08-01T19:42:42;2.17;;;1.98;;
22223;SDS011;11281;52.194;21.006;2023-08-01T19:47:04;3.47;;;2.67;;
22223;SDS011;11281;52.194;21.006;2023-08-01T19:51:25;4.03;;;2.38;;
22223;SDS011;11281;52.194;21.006;2023-08-01T19:55:47;4.20;;;1.95;;
22223;SDS011;11281;52.194;21.006;2023-08-01T20:00:09;3.38;;;2.45;;
22223;SDS011;11281;52.194;21.006;2023-08-01T20:04:32;3.33;;;2.47;;
22223;SDS011;11281;52.194;21.006;2023-08-01T20:08:53;4.07;;;3.05;;
22223;SDS011;11281;52.194;21.006;2023-08-01T20:13:15;5.20;;;2.63;;
22223;SDS011;11281;52.194;21.006;2023-08-01T20:17:37;4.15;;;2.72;;
22223;SDS011;11281;52.194;21.006;2023-08-01T20:22:00;5.15;;;3.00;;
22223;SDS011;11281;52.194;21.006;2023-08-01T20:26:22;4.13;;;2.70;;
22223;SDS011;11281;52.194;21.006;2023-08-01T20:30:44;2.97;;;2.58;;
22223;SDS011;11281;52.194;21.006;2023-08-01T20:35:06;5.50;;;2.85;;
22223;SDS011;11281;52.194;21.006;2023-08-01T20:39:29;4.38;;;3.00;;
22223;SDS011;11281;52.194;21.006;2023-08-01T20:43:51;4.10;;;2.63;;
22223;SDS011;11281;52.194;21.006;2023-08-01T20:48:13;5.10;;;3.15;;
22223;SDS011;11281;52.194;21.006;2023-08-01T20:52:35;5.03;;;2.85;;
22223;SDS011;11281;52.194;21.006;2023-08-01T20:56:57;3.63;;;2.50;;
22223;SDS011;11281;52.194;21.006;2023-08-01T21:01:18;4.97;;;3.10;;
22223;SDS011;11281;52.194;21.006;2023-08-01T21:05:41;3.33;;;2.50;;
22223;SDS011;11281;52.194;21.006;2023-08-01T21:10:03;3.60;;;2.30;;
22223;SDS011;11281;52.194;21.006;2023-08-01T21:14:25;3.47;;;2.65;;
22223;SDS011;11281;52.194;21.006;2023-08-01T21:18:47;3.30;;;2.55;;
22223;SDS011;11281;52.194;21.006;2023-08-01T21:23:09;4.32;;;2.45;;
22223;SDS011;11281;52.194;21.006;2023-08-01T21:27:30;3.15;;;2.10;;
22223;SDS011;11281;52.194;21.006;2023-08-01T21:31:52;3.75;;;1.90;;
22223;SDS011;11281;52.194;21.006;2023-08-01T21:36:14;2.80;;;2.17;;
22223;SDS011;11281;52.194;21.006;2023-08-01T21:40:36;2.42;;;1.60;;
22223;SDS011;11281;52.194;21.006;2023-08-01T21:44:58;1.95;;;1.58;;
22223;SDS011;11281;52.194;21.006;2023-08-01T21:49:22;3.75;;;1.63;;
22223;SDS011;11281;52.194;21.006;2023-08-01T21:53:44;1.85;;;1.30;;
22223;SDS011;11281;52.194;21.006;2023-08-01T21:58:06;3.20;;;1.48;;
22223;SDS011;11281;52.194;21.006;2023-08-01T22:02:28;1.90;;;1.73;;
22223;SDS011;11281;52.194;21.006;2023-08-01T22:06:49;2.60;;;2.00;;
22223;SDS011;11281;52.194;21.006;2023-08-01T22:11:11;2.28;;;1.77;;
22223;SDS011;11281;52.194;21.006;2023-08-01T22:15:33;1.83;;;1.70;;
22223;SDS011;11281;52.194;21.006;2023-08-01T22:19:55;2.83;;;1.67;;
22223;SDS011;11281;52.194;21.006;2023-08-01T22:24:17;2.10;;;1.70;;
22223;SDS011;11281;52.194;21.006;2023-08-01T22:28:39;3.35;;;1.90;;
22223;SDS011;11281;52.194;21.006;2023-08-01T22:33:00;2.40;;;1.80;;
22223;SDS011;11281;52.194;21.006;2023-08-01T22:37:23;4.70;;;1.88;;
22223;SDS011;11281;52.194;21.006;2023-08-01T22:41:45;2.15;;;1.58;;
22223;SDS011;11281;52.194;21.006;2023-08-01T22:46:06;3.72;;;2.55;;
22223;SDS011;11281;52.194;21.006;2023-08-01T22:50:28;3.72;;;2.58;;
22223;SDS011;11281;52.194;21.006;2023-08-01T22:54:53;3.78;;;2.70;;
22223;SDS011;11281;52.194;21.006;2023-08-01T22:59:15;2.88;;;2.50;;
22223;SDS011;11281;52.194;21.006;2023-08-01T23:03:37;3.00;;;2.42;;
22223;SDS011;11281;52.194;21.006;2023-08-01T23:08:00;3.78;;;2.80;;
22223;SDS011;11281;52.194;21.006;2023-08-01T23:12:21;3.67;;;2.38;;
22223;SDS011;11281;52.194;21.006;2023-08-01T23:16:43;4.78;;;3.45;;
22223;SDS011;11281;52.194;21.006;2023-08-01T23:21:05;4.25;;;2.95;;
22223;SDS011;11281;52.194;21.006;2023-08-01T23:25:26;5.90;;;3.60;;
22223;SDS011;11281;52.194;21.006;2023-08-01T23:29:51;4.60;;;3.03;;
22223;SDS011;11281;52.194;21.006;2023-08-01T23:34:14;6.03;;;3.20;;
22223;SDS011;11281;52.194;21.006;2023-08-01T23:38:36;10.75;;;3.92;;
22223;SDS011;11281;52.194;21.006;2023-08-01T23:42:57;4.70;;;3.30;;
22223;SDS011;11281;52.194;21.006;2023-08-01T23:47:19;7.05;;;3.63;;
22223;SDS011;11281;52.194;21.006;2023-08-01T23:51:41;4.72;;;3.00;;
22223;SDS011;11281;52.194;21.006;2023-08-01T23:56:02;6.53;;;4.00;;
